Time;durP1;ratioP1;P1;durP2;ratioP2;P2;SDS_P1;SDS_P2;PMS_P1;PMS_P2;Temp;Humidity;BMP_temperature;BMP_pressure;BME280_temperature;BME280_humidity;BME280_pressure;Samples;Min_cycle;Max_cycle;Signal;HPM_P1;HPM_P2
2023/11/27 00:00:13;;;;;;;6.35;1.95;;;4.60;1.00;;;;;;5050336;28;20385;-68
2023/11/27 00:02:39;;;;;;;8.27;1.67;;;4.60;1.00;;;;;;5049415;28;20744;-68
2023/11/27 00:05:05;;;;;;;6.30;2.65;;;4.60;1.00;;;;;;5049516;28;20400;-68
2023/11/27 00:07:30;;;;;;;8.43;2.20;;;4.60;1.00;;;;;;5050215;28;20393;-68
2023/11/27 00:09:56;;;;;;;6.50;2.00;;;4.60;1.00;;;;;;5049482;28;20439;-68
2023/11/27 00:12:22;;;;;;;6.07;1.83;;;4.50;1.00;;;;;;5049583;28;20429;-68
2023/11/27 00:14:47;;;;;;;5.60;2.03;;;4.50;1.00;;;;;;5049435;28;20381;-68
2023/11/27 00:17:13;;;;;;;5.70;1.70;;;4.40;1.00;;;;;;5048368;28;20397;-68
2023/11/27 00:19:38;;;;;;;6.78;2.20;;;4.40;1.00;;;;;;5048959;28;20954;-68
2023/11/27 00:22:04;;;;;;;5.83;1.53;;;4.50;1.00;;;;;;5049070;28;20389;-68
2023/11/27 00:24:30;;;;;;;5.85;1.73;;;4.50;1.00;;;;;;5049368;28;20390;-68
2023/11/27 00:26:55;;;;;;;5.63;1.83;;;4.50;1.00;;;;;;5049658;28;20469;-68
2023/11/27 00:29:21;;;;;;;6.88;1.90;;;4.50;1.00;;;;;;5049748;28;20463;-68
2023/11/27 00:31:46;;;;;;;6.70;2.00;;;4.50;1.00;;;;;;5049613;28;20433;-68
2023/11/27 00:34:12;;;;;;;6.37;1.53;;;4.50;1.00;;;;;;5049425;28;20398;-68
2023/11/27 00:36:38;;;;;;;5.68;1.90;;;4.50;1.00;;;;;;5049282;28;20409;-68
2023/11/27 00:39:08;;;;;;;5.20;1.77;;;4.40;1.00;;;;;;5047871;28;21650;-68
2023/11/27 00:41:34;;;;;;;4.88;1.67;;;4.40;1.00;;;;;;5049490;28;20408;-68
2023/11/27 00:44:00;;;;;;;8.25;1.92;;;4.50;1.00;;;;;;5048207;28;20752;-68
2023/11/27 00:46:27;;;;;;;5.30;1.80;;;4.50;1.00;;;;;;5049331;28;20400;-68
2023/11/27 00:48:52;;;;;;;6.82;2.13;;;4.40;1.00;;;;;;5047449;28;20406;-68
2023/11/27 00:51:18;;;;;;;5.93;1.63;;;4.40;1.00;;;;;;5049191;28;20420;-68
2023/11/27 00:53:43;;;;;;;5.03;1.58;;;4.50;1.00;;;;;;5053201;28;20428;-68
2023/11/27 00:56:12;;;;;;;7.60;1.40;;;4.50;1.00;;;;;;5035969;28;20395;-68
2023/11/27 00:58:37;;;;;;;4.70;1.27;;;4.50;1.00;;;;;;5033235;28;20395;-68
2023/11/27 01:01:05;;;;;;;6.60;1.60;;;4.50;1.00;;;;;;5047322;28;20709;-68
2023/11/27 01:03:31;;;;;;;4.72;1.40;;;4.60;1.00;;;;;;5035510;28;20483;-68
2023/11/27 01:05:56;;;;;;;6.88;1.48;;;4.50;1.00;;;;;;5049116;28;20399;-68
2023/11/27 01:08:22;;;;;;;6.65;1.95;;;4.60;1.00;;;;;;5052190;28;20455;-68
2023/11/27 01:10:49;;;;;;;5.65;1.73;;;4.50;1.00;;;;;;5052660;28;20946;-68
2023/11/27 01:13:15;;;;;;;5.85;1.60;;;4.40;1.00;;;;;;5052647;28;20463;-68
2023/11/27 01:15:41;;;;;;;6.40;1.67;;;4.30;1.00;;;;;;5053469;28;20382;-68
2023/11/27 01:18:07;;;;;;;7.20;1.80;;;4.40;1.00;;;;;;5052313;28;20411;-68
2023/11/27 01:20:32;;;;;;;6.82;1.70;;;4.30;1.00;;;;;;5051338;28;20400;-68
2023/11/27 01:22:59;;;;;;;6.47;1.83;;;4.30;1.00;;;;;;5052165;28;20760;-68
2023/11/27 01:25:25;;;;;;;5.60;1.70;;;4.30;1.00;;;;;;5052703;28;20385;-68
2023/11/27 01:27:50;;;;;;;5.20;1.20;;;4.30;1.00;;;;;;5052691;28;20382;-68
2023/11/27 01:30:18;;;;;;;5.18;1.45;;;4.30;1.00;;;;;;5052606;28;20524;-68
2023/11/27 01:32:44;;;;;;;4.75;1.20;;;4.30;1.00;;;;;;5052475;28;20425;-68
2023/11/27 01:35:10;;;;;;;5.65;1.52;;;4.20;1.00;;;;;;5053352;28;20392;-68
2023/11/27 01:37:35;;;;;;;7.10;1.90;;;4.30;1.00;;;;;;5052291;28;20748;-68
2023/11/27 01:40:01;;;;;;;6.17;1.70;;;4.30;1.00;;;;;;5052283;28;20424;-68
2023/11/27 01:42:26;;;;;;;7.53;2.00;;;4.30;1.00;;;;;;5050689;28;20735;-68
2023/11/27 01:44:52;;;;;;;5.60;1.60;;;4.30;1.00;;;;;;5052478;28;20394;-68
2023/11/27 01:47:18;;;;;;;5.70;1.90;;;4.20;1.00;;;;;;5037420;28;20395;-68
2023/11/27 01:49:45;;;;;;;4.65;1.45;;;4.20;1.00;;;;;;5042676;28;20405;-68
2023/11/27 01:52:11;;;;;;;6.20;1.50;;;4.10;1.00;;;;;;5053018;28;20470;-68
2023/11/27 01:54:38;;;;;;;5.23;1.40;;;4.10;1.00;;;;;;5052010;28;20401;-68
2023/11/27 01:57:04;;;;;;;5.30;1.85;;;4.20;1.00;;;;;;5052198;28;20397;-68
2023/11/27 01:59:31;;;;;;;6.50;1.90;;;4.30;1.00;;;;;;5051775;28;20393;-68
2023/11/27 02:01:57;;;;;;;7.00;1.40;;;4.20;1.00;;;;;;5051819;28;20389;-68
2023/11/27 02:04:22;;;;;;;5.85;1.65;;;4.10;1.00;;;;;;5050654;28;20480;-68
2023/11/27 02:06:48;;;;;;;4.75;1.20;;;4.00;1.00;;;;;;5034911;28;20472;-68
2023/11/27 02:09:15;;;;;;;7.10;1.43;;;4.00;1.00;;;;;;5052193;28;20385;-68
2023/11/27 02:11:46;;;;;;;5.32;1.60;;;4.00;1.00;;;;;;5052038;28;20447;-68
2023/11/27 02:14:14;;;;;;;5.82;1.70;;;4.00;1.00;;;;;;5051954;28;20408;-67
2023/11/27 02:16:39;;;;;;;5.40;1.40;;;4.00;1.00;;;;;;5051396;28;20385;-67
2023/11/27 02:19:05;;;;;;;4.53;1.20;;;4.10;1.00;;;;;;5036291;28;20410;-68
2023/11/27 02:21:30;;;;;;;5.65;1.45;;;4.20;1.00;;;;;;5049856;28;20701;-68
2023/11/27 02:23:56;;;;;;;6.27;1.23;;;4.20;1.00;;;;;;5051772;28;20378;-68
2023/11/27 02:26:21;;;;;;;4.30;1.20;;;4.20;1.00;;;;;;5051420;28;20408;-68
2023/11/27 02:28:47;;;;;;;5.20;1.20;;;4.20;1.00;;;;;;5051255;28;20401;-69
2023/11/27 02:31:12;;;;;;;5.53;1.83;;;4.20;1.00;;;;;;5051302;28;20396;-68
2023/11/27 02:33:39;;;;;;;6.20;1.40;;;4.20;1.00;;;;;;5051110;28;20456;-68
2023/11/27 02:36:05;;;;;;;6.32;1.50;;;4.20;1.00;;;;;;5051075;28;20947;-68
2023/11/27 02:38:30;;;;;;;5.50;1.40;;;4.20;1.00;;;;;;5051209;28;20397;-68
2023/11/27 02:40:56;;;;;;;4.80;1.20;;;4.20;1.00;;;;;;5051083;28;20390;-68
2023/11/27 02:43:22;;;;;;;5.00;1.53;;;4.30;1.00;;;;;;5035184;28;20502;-68
2023/11/27 02:45:47;;;;;;;5.28;1.48;;;4.30;1.00;;;;;;5050904;28;20386;-68
2023/11/27 02:48:13;;;;;;;7.80;1.67;;;4.20;1.00;;;;;;5051724;28;20749;-68
2023/11/27 02:50:38;;;;;;;7.20;1.95;;;4.10;1.00;;;;;;5050966;28;20389;-68
2023/11/27 02:53:04;;;;;;;5.90;1.87;;;4.00;1.00;;;;;;5050609;28;20461;-68
2023/11/27 02:55:29;;;;;;;4.78;1.17;;;3.90;1.00;;;;;;5045360;28;20485;-68
2023/11/27 02:57:55;;;;;;;6.60;1.60;;;3.90;1.00;;;;;;5042487;28;20921;-68
2023/11/27 03:00:21;;;;;;;5.22;1.70;;;3.90;1.00;;;;;;5050887;28;20390;-68
2023/11/27 03:02:46;;;;;;;8.38;2.17;;;3.80;1.00;;;;;;5050759;28;20422;-68
2023/11/27 03:05:12;;;;;;;6.60;1.60;;;3.80;1.00;;;;;;5051492;28;20390;-68
2023/11/27 03:07:39;;;;;;;5.10;1.30;;;3.80;1.00;;;;;;5050833;28;20720;-68
2023/11/27 03:10:08;;;;;;;6.07;1.38;;;3.90;1.00;;;;;;5050626;28;20394;-68
2023/11/27 03:12:34;;;;;;;5.43;1.55;;;4.00;1.00;;;;;;5050345;28;20475;-68
2023/11/27 03:15:00;;;;;;;5.35;1.30;;;3.90;1.00;;;;;;5049838;28;20394;-68
2023/11/27 03:17:25;;;;;;;6.10;2.10;;;3.90;1.00;;;;;;5048914;28;20405;-68
2023/11/27 03:19:52;;;;;;;6.17;1.90;;;3.90;1.00;;;;;;5050470;28;20385;-68
2023/11/27 03:22:18;;;;;;;5.10;1.30;;;3.80;1.00;;;;;;5050450;28;20402;-68
2023/11/27 03:24:44;;;;;;;5.47;1.50;;;3.70;1.00;;;;;;5050373;28;20385;-68
2023/11/27 03:27:09;;;;;;;6.50;2.10;;;3.60;1.00;;;;;;5050982;28;20401;-68
2023/11/27 03:29:35;;;;;;;9.30;1.80;;;3.40;1.00;;;;;;5050246;28;20408;-68
2023/11/27 03:32:00;;;;;;;7.00;1.70;;;3.50;1.00;;;;;;5050946;28;20421;-68
2023/11/27 03:34:26;;;;;;;6.03;1.80;;;3.60;1.00;;;;;;5051949;28;20883;-68
2023/11/27 03:36:52;;;;;;;4.50;1.30;;;3.60;1.00;;;;;;5049608;28;20421;-68
2023/11/27 03:39:17;;;;;;;7.07;1.73;;;3.60;1.00;;;;;;5049736;28;20387;-68
2023/11/27 03:41:42;;;;;;;5.53;1.60;;;3.70;1.00;;;;;;5050363;28;20401;-68
2023/11/27 03:44:08;;;;;;;9.18;2.10;;;3.80;1.00;;;;;;5050137;28;20393;-68
2023/11/27 03:46:37;;;;;;;5.00;1.57;;;3.90;1.00;;;;;;5049408;28;20398;-68
2023/11/27 03:49:02;;;;;;;8.07;1.63;;;3.90;1.00;;;;;;5049964;28;20405;-68
2023/11/27 03:51:28;;;;;;;6.80;2.40;;;3.90;1.00;;;;;;5049410;28;20447;-68
2023/11/27 03:53:55;;;;;;;6.60;1.90;;;4.00;1.00;;;;;;5049364;28;20908;-68
2023/11/27 03:56:20;;;;;;;6.15;2.45;;;4.10;1.00;;;;;;5049611;28;20460;-68
2023/11/27 03:58:47;;;;;;;6.83;2.07;;;4.10;1.00;;;;;;5049221;28;20528;-68
2023/11/27 04:01:13;;;;;;;5.25;1.70;;;4.20;1.00;;;;;;5046802;28;20921;-68
2023/11/27 04:03:42;;;;;;;6.70;2.28;;;4.20;1.00;;;;;;5047948;28;20450;-67
2023/11/27 04:06:09;;;;;;;6.70;2.10;;;4.20;1.00;;;;;;5048848;28;20389;-68
2023/11/27 04:08:38;;;;;;;5.23;1.53;;;4.10;1.00;;;;;;5049149;28;20894;-67
2023/11/27 04:11:06;;;;;;;5.68;1.55;;;4.10;1.00;;;;;;5049370;28;20697;-67
2023/11/27 04:13:33;;;;;;;7.07;2.38;;;4.10;1.00;;;;;;5048686;28;20448;-67
2023/11/27 04:15:58;;;;;;;5.43;2.10;;;4.00;1.00;;;;;;5049249;28;20389;-68
2023/11/27 04:18:24;;;;;;;5.68;2.05;;;4.00;1.00;;;;;;5049423;28;20878;-68
2023/11/27 04:20:49;;;;;;;5.20;1.40;;;4.10;1.00;;;;;;5051470;28;20397;-68
2023/11/27 04:23:15;;;;;;;5.40;1.90;;;4.00;1.00;;;;;;5054974;28;20397;-68
2023/11/27 04:25:40;;;;;;;5.90;1.60;;;3.80;1.00;;;;;;5054243;28;20386;-67
2023/11/27 04:28:07;;;;;;;4.72;1.40;;;3.70;1.00;;;;;;5049302;28;20791;-67
2023/11/27 04:30:32;;;;;;;6.07;2.22;;;3.70;1.00;;;;;;5046708;28;20402;-68
2023/11/27 04:32:58;;;;;;;6.13;2.00;;;3.70;1.00;;;;;;5049430;28;20421;-67
2023/11/27 04:35:23;;;;;;;5.80;1.80;;;3.80;1.00;;;;;;5048937;28;20776;-68
2023/11/27 04:37:49;;;;;;;5.68;1.98;;;3.80;1.00;;;;;;5049567;28;20426;-67
2023/11/27 04:40:15;;;;;;;6.00;2.00;;;3.80;1.00;;;;;;5049784;28;20485;-68
2023/11/27 04:42:41;;;;;;;5.90;1.80;;;3.80;1.00;;;;;;5051928;28;20463;-68
2023/11/27 04:45:07;;;;;;;6.87;1.90;;;3.90;1.00;;;;;;5048321;28;20803;-67
2023/11/27 04:47:34;;;;;;;6.93;1.88;;;4.00;1.00;;;;;;5049234;28;20390;-67
2023/11/27 04:49:59;;;;;;;6.03;1.90;;;4.10;1.00;;;;;;5048535;28;20394;-68
2023/11/27 04:52:25;;;;;;;9.60;2.00;;;4.10;1.00;;;;;;5049178;28;20424;-67
2023/11/27 04:54:50;;;;;;;5.37;1.60;;;4.10;1.00;;;;;;5048728;28;20455;-66
2023/11/27 04:57:16;;;;;;;5.63;1.93;;;3.90;1.00;;;;;;5043457;28;20413;-68
2023/11/27 04:59:42;;;;;;;7.20;1.88;;;4.00;1.00;;;;;;5043938;28;20421;-67
2023/11/27 05:02:08;;;;;;;7.65;2.33;;;3.90;1.00;;;;;;5042664;28;20933;-67
2023/11/27 05:04:33;;;;;;;7.72;2.00;;;4.00;1.00;;;;;;5037639;28;20413;-68
2023/11/27 05:07:00;;;;;;;4.93;1.40;;;4.00;1.00;;;;;;5046195;28;20418;-67
2023/11/27 05:09:26;;;;;;;6.40;2.20;;;4.00;1.00;;;;;;5039740;28;20413;-68
2023/11/27 05:11:54;;;;;;;8.82;2.00;;;4.00;1.00;;;;;;5053505;28;20805;-69
2023/11/27 05:14:19;;;;;;;5.60;1.75;;;3.90;1.00;;;;;;5050234;28;20491;-68
2023/11/27 05:16:45;;;;;;;7.35;2.25;;;3.90;1.00;;;;;;5044337;28;20415;-67
2023/11/27 05:19:10;;;;;;;6.93;1.70;;;3.90;1.00;;;;;;5043418;28;20433;-68
2023/11/27 05:21:36;;;;;;;7.40;1.60;;;3.90;1.00;;;;;;5044211;28;20538;-68
2023/11/27 05:24:02;;;;;;;6.90;1.70;;;3.80;1.00;;;;;;5046433;28;20516;-68
2023/11/27 05:26:28;;;;;;;6.30;1.65;;;3.80;1.00;;;;;;5046598;28;20420;-68
2023/11/27 05:28:54;;;;;;;7.97;1.50;;;3.80;1.00;;;;;;5042616;28;20405;-67
2023/11/27 05:31:25;;;;;;;4.70;1.60;;;3.80;1.00;;;;;;5039516;28;20407;-67
2023/11/27 05:33:51;;;;;;;6.65;2.03;;;3.80;1.00;;;;;;5032156;28;20415;-67
2023/11/27 05:36:19;;;;;;;7.73;1.67;;;3.90;1.00;;;;;;5048450;28;20480;-67
2023/11/27 05:38:44;;;;;;;6.32;1.27;;;3.90;1.00;;;;;;5045377;28;20445;-67
2023/11/27 05:41:12;;;;;;;5.68;1.83;;;4.00;1.00;;;;;;5044576;28;20788;-67
2023/11/27 05:43:37;;;;;;;5.40;1.50;;;4.00;1.00;;;;;;5039327;28;20433;-67
2023/11/27 05:46:04;;;;;;;5.55;1.65;;;4.00;1.00;;;;;;5047517;28;20417;-67
2023/11/27 05:48:29;;;;;;;6.82;2.00;;;4.10;1.00;;;;;;5033644;28;20461;-68
2023/11/27 05:50:56;;;;;;;5.18;1.27;;;4.10;1.00;;;;;;5032495;28;20383;-67
2023/11/27 05:53:21;;;;;;;7.32;1.55;;;4.20;1.00;;;;;;5043364;28;20417;-66
2023/11/27 05:55:47;;;;;;;5.15;1.40;;;4.20;1.00;;;;;;5050659;28;20933;-67
2023/11/27 05:58:12;;;;;;;5.00;1.30;;;4.10;1.00;;;;;;5049647;28;20420;-67
2023/11/27 06:00:38;;;;;;;5.63;1.40;;;4.00;1.00;;;;;;5051571;28;20428;-68
2023/11/27 06:03:04;;;;;;;5.37;1.40;;;4.10;1.00;;;;;;5051645;28;20409;-67
2023/11/27 06:05:29;;;;;;;5.32;1.65;;;4.20;1.00;;;;;;5051814;28;20393;-75
2023/11/27 06:07:55;;;;;;;7.50;1.80;;;4.10;1.00;;;;;;5052761;28;20826;-67
2023/11/27 06:10:20;;;;;;;5.73;1.40;;;4.10;1.00;;;;;;5052049;28;20392;-74
2023/11/27 06:12:46;;;;;;;4.87;1.70;;;4.10;1.00;;;;;;5051073;28;20429;-74
2023/11/27 06:15:15;;;;;;;4.77;1.40;;;4.10;1.00;;;;;;5052402;28;20814;-74
2023/11/27 06:17:41;;;;;;;8.93;1.60;;;4.00;1.00;;;;;;5052109;28;20398;-65
2023/11/27 06:20:14;;;;;;;5.07;1.17;;;4.10;1.00;;;;;;5052707;28;20878;-68
2023/11/27 06:22:40;;;;;;;5.55;1.63;;;4.20;1.00;;;;;;5052603;28;20400;-66
2023/11/27 06:25:07;;;;;;;6.80;2.38;;;4.10;1.00;;;;;;5045920;28;20527;-66
2023/11/27 06:27:33;;;;;;;4.90;1.58;;;4.20;1.00;;;;;;5031362;28;20395;-67
2023/11/27 06:29:59;;;;;;;6.43;1.70;;;4.20;1.00;;;;;;5032330;28;20398;-67
2023/11/27 06:32:25;;;;;;;7.80;1.90;;;4.30;1.00;;;;;;5030866;28;20415;-67
2023/11/27 06:34:51;;;;;;;7.33;2.20;;;4.20;1.00;;;;;;5029717;28;20474;-67
2023/11/27 06:37:16;;;;;;;9.88;1.80;;;4.30;1.00;;;;;;5030784;28;20916;-67
2023/11/27 06:39:42;;;;;;;5.30;1.30;;;4.30;1.00;;;;;;5030271;28;20387;-67
2023/11/27 06:42:11;;;;;;;5.38;1.63;;;4.30;1.00;;;;;;5029970;28;20461;-66
2023/11/27 06:44:38;;;;;;;5.72;1.50;;;4.30;1.00;;;;;;5030648;28;20389;-66
2023/11/27 06:47:04;;;;;;;5.70;1.20;;;4.20;1.00;;;;;;5030484;28;20903;-66
2023/11/27 06:49:29;;;;;;;5.20;1.83;;;4.20;1.00;;;;;;5030140;28;20477;-67
2023/11/27 06:51:55;;;;;;;7.05;2.00;;;4.20;1.00;;;;;;5031150;28;20394;-67
2023/11/27 06:54:20;;;;;;;7.07;2.00;;;4.30;1.00;;;;;;5030967;28;20944;-67
2023/11/27 06:56:46;;;;;;;6.70;1.90;;;4.30;1.00;;;;;;5030667;28;20474;-67
2023/11/27 06:59:11;;;;;;;5.73;1.80;;;4.40;1.00;;;;;;5031120;28;20399;-67
2023/11/27 07:01:41;;;;;;;6.60;1.50;;;4.40;1.00;;;;;;5030679;28;20391;-67
2023/11/27 07:04:07;;;;;;;6.20;1.70;;;4.40;1.00;;;;;;5032755;28;20411;-67
2023/11/27 07:06:35;;;;;;;6.60;1.60;;;4.40;1.00;;;;;;5047323;28;20884;-67
2023/11/27 07:09:04;;;;;;;4.40;0.90;;;4.40;1.00;;;;;;5042695;28;20404;-67
2023/11/27 07:11:30;;;;;;;6.30;1.90;;;4.40;1.00;;;;;;5047792;28;20893;-67
2023/11/27 07:13:56;;;;;;;6.30;1.50;;;4.30;1.00;;;;;;5029379;28;20862;-67
2023/11/27 07:16:21;;;;;;;6.50;1.50;;;4.30;1.00;;;;;;5030627;28;20486;-67
2023/11/27 07:18:47;;;;;;;5.77;1.20;;;4.30;1.00;;;;;;5030728;28;20398;-66
2023/11/27 07:21:13;;;;;;;6.70;1.50;;;4.40;1.00;;;;;;5031234;28;20898;-66
2023/11/27 07:23:44;;;;;;;5.10;1.07;;;4.40;1.00;;;;;;5030565;28;20414;-66
2023/11/27 07:26:10;;;;;;;5.15;1.50;;;4.40;1.00;;;;;;5048857;28;20469;-67
2023/11/27 07:28:40;;;;;;;4.63;1.20;;;4.40;1.00;;;;;;5050775;28;20794;-67
2023/11/27 07:31:06;;;;;;;5.47;1.48;;;4.30;1.00;;;;;;5050532;28;20398;-67
2023/11/27 07:33:33;;;;;;;4.60;1.30;;;4.30;1.00;;;;;;5050046;28;20532;-67
2023/11/27 07:35:59;;;;;;;5.60;1.10;;;4.30;1.00;;;;;;5049898;28;20423;-67
2023/11/27 07:38:25;;;;;;;6.60;1.38;;;4.20;1.00;;;;;;5050206;28;20473;-67
2023/11/27 07:40:52;;;;;;;6.97;1.70;;;4.20;1.00;;;;;;5050247;28;20485;-67
2023/11/27 07:43:18;;;;;;;5.57;1.00;;;4.20;1.00;;;;;;5050330;28;20389;-67
2023/11/27 07:45:43;;;;;;;5.30;1.20;;;4.30;1.00;;;;;;5050807;28;20516;-67
2023/11/27 07:48:09;;;;;;;6.03;0.90;;;4.40;1.00;;;;;;5050121;28;20421;-67
2023/11/27 07:50:35;;;;;;;5.00;1.07;;;4.50;1.00;;;;;;5049870;28;20428;-67
2023/11/27 07:53:01;;;;;;;5.30;1.00;;;4.40;1.00;;;;;;5049736;28;20448;-66
2023/11/27 07:55:28;;;;;;;5.97;1.10;;;4.40;1.00;;;;;;5049653;28;21102;-67
2023/11/27 07:57:53;;;;;;;3.92;0.85;;;4.50;1.00;;;;;;5049824;28;20382;-67
2023/11/27 08:00:19;;;;;;;4.80;1.10;;;4.50;1.00;;;;;;5050082;28;20819;-67
2023/11/27 08:02:47;;;;;;;4.80;1.05;;;4.50;1.00;;;;;;5049309;28;20401;-67
2023/11/27 08:05:15;;;;;;;4.53;1.00;;;4.50;1.00;;;;;;5049625;28;20424;-67
2023/11/27 08:07:40;;;;;;;6.03;1.20;;;4.50;1.00;;;;;;5050121;28;20477;-67
2023/11/27 08:10:08;;;;;;;6.20;1.70;;;4.70;1.00;;;;;;5049312;28;20495;-67
2023/11/27 08:12:36;;;;;;;4.82;1.20;;;4.80;1.00;;;;;;5049492;28;20428;-67
2023/11/27 08:15:02;;;;;;;5.65;1.05;;;4.80;1.00;;;;;;5049695;28;20392;-67
2023/11/27 08:17:28;;;;;;;6.60;1.33;;;4.80;1.00;;;;;;5049348;28;20378;-67
2023/11/27 08:19:53;;;;;;;5.30;1.07;;;4.70;1.00;;;;;;5049065;28;20393;-67
2023/11/27 08:22:19;;;;;;;5.90;1.40;;;4.80;1.00;;;;;;5049431;28;20444;-67
2023/11/27 08:24:44;;;;;;;7.20;1.40;;;4.80;1.00;;;;;;5049182;28;20768;-67
2023/11/27 08:27:10;;;;;;;6.10;1.60;;;4.80;1.00;;;;;;5049930;28;20392;-67
2023/11/27 08:29:36;;;;;;;6.50;1.60;;;4.90;1.00;;;;;;5049247;28;20397;-67
2023/11/27 08:32:01;;;;;;;7.65;1.52;;;4.90;1.00;;;;;;5049378;28;20969;-67
2023/11/27 08:34:28;;;;;;;6.10;1.30;;;5.00;1.00;;;;;;5048911;28;20398;-67
2023/11/27 08:36:57;;;;;;;6.40;1.70;;;5.00;1.00;;;;;;5049126;28;20416;-67
2023/11/27 08:39:24;;;;;;;7.07;1.25;;;5.20;1.00;;;;;;5049090;28;20457;-67
2023/11/27 08:41:51;;;;;;;4.50;0.70;;;5.20;1.00;;;;;;5049444;28;20385;-67
2023/11/27 08:44:17;;;;;;;4.93;1.27;;;5.20;1.00;;;;;;5049120;28;20390;-67
2023/11/27 08:46:43;;;;;;;5.10;1.40;;;5.30;1.00;;;;;;5049426;28;20381;-67
2023/11/27 08:49:10;;;;;;;7.50;1.10;;;5.40;1.00;;;;;;5048689;28;20472;-67
2023/11/27 08:51:36;;;;;;;4.50;0.73;;;5.50;1.00;;;;;;5049256;28;20409;-67
2023/11/27 08:54:02;;;;;;;4.50;0.80;;;5.40;1.00;;;;;;5048794;28;20431;-67
2023/11/27 08:56:33;;;;;;;4.30;0.70;;;5.50;1.00;;;;;;5049022;28;20476;-67
2023/11/27 08:59:00;;;;;;;6.57;1.20;;;5.50;1.00;;;;;;5049276;28;20782;-67
2023/11/27 09:01:25;;;;;;;3.85;0.60;;;5.40;1.00;;;;;;5049121;28;20759;-67
2023/11/27 09:03:51;;;;;;;4.10;0.60;;;5.40;1.00;;;;;;5048589;28;20381;-67
2023/11/27 09:06:19;;;;;;;4.00;0.70;;;5.40;1.00;;;;;;5049219;28;20767;-67
2023/11/27 09:08:45;;;;;;;6.80;1.30;;;5.50;1.00;;;;;;5048981;28;20508;-67
2023/11/27 09:11:11;;;;;;;5.30;0.90;;;5.50;1.00;;;;;;5049731;28;20401;-68
2023/11/27 09:13:37;;;;;;;4.80;0.77;;;5.50;1.00;;;;;;5050766;28;20409;-67
2023/11/27 09:16:03;;;;;;;4.82;0.90;;;5.60;1.00;;;;;;5052916;28;20419;-67
2023/11/27 09:18:28;;;;;;;5.70;0.50;;;5.80;1.00;;;;;;5052436;28;20417;-67
2023/11/27 09:20:54;;;;;;;4.40;0.80;;;6.00;1.00;;;;;;5052573;28;20429;-67
2023/11/27 09:23:19;;;;;;;4.00;0.40;;;6.00;1.00;;;;;;5052671;28;20415;-66
2023/11/27 09:25:45;;;;;;;4.60;1.13;;;6.10;1.00;;;;;;5052622;28;20448;-67
2023/11/27 09:28:11;;;;;;;5.00;1.20;;;6.20;1.00;;;;;;5053218;28;20747;-67
2023/11/27 09:30:36;;;;;;;4.50;0.70;;;6.20;1.00;;;;;;5052505;28;20417;-67
2023/11/27 09:33:04;;;;;;;4.70;0.70;;;6.00;1.00;;;;;;5052493;28;20965;-67
2023/11/27 09:35:29;;;;;;;4.20;0.70;;;6.00;1.00;;;;;;5052262;28;20401;-66
2023/11/27 09:37:55;;;;;;;4.00;0.60;;;6.10;1.00;;;;;;5052206;28;20393;-67
2023/11/27 09:40:21;;;;;;;5.20;1.00;;;6.00;1.00;;;;;;5052454;28;20470;-67
2023/11/27 09:42:47;;;;;;;6.20;0.77;;;5.80;1.00;;;;;;5052528;28;20397;-67
2023/11/27 09:45:13;;;;;;;4.40;0.60;;;5.80;1.00;;;;;;5052826;28;20389;-67
2023/11/27 09:47:42;;;;;;;4.20;0.60;;;5.80;1.00;;;;;;5051907;28;20435;-67
2023/11/27 09:50:11;;;;;;;5.78;0.80;;;5.90;1.00;;;;;;5052296;28;20882;-67
2023/11/27 09:52:59;;;;;;;4.00;0.60;;;6.20;1.00;;;;;;5052358;28;20466;-67
2023/11/27 09:55:31;;;;;;;4.22;0.60;;;6.30;1.00;;;;;;5051901;28;20413;-67
2023/11/27 09:57:59;;;;;;;4.28;0.68;;;6.30;1.00;;;;;;5052104;28;20448;-67
2023/11/27 10:00:25;;;;;;;4.40;0.70;;;6.20;1.00;;;;;;5051887;28;20390;-67
2023/11/27 10:02:51;;;;;;;4.60;0.70;;;6.30;1.00;;;;;;5051483;28;20392;-67
2023/11/27 10:05:18;;;;;;;4.70;0.70;;;6.40;1.00;;;;;;5051855;28;20390;-66
2023/11/27 10:07:49;;;;;;;4.73;1.30;;;6.30;1.00;;;;;;5052619;28;20750;-66
2023/11/27 10:10:25;;;;;;;4.90;0.70;;;6.10;1.00;;;;;;5052069;28;20411;-67
2023/11/27 10:12:54;;;;;;;4.20;0.80;;;6.30;1.00;;;;;;5052909;28;20425;-67
2023/11/27 10:15:20;;;;;;;4.80;0.80;;;6.50;1.00;;;;;;5051692;28;20385;-67
2023/11/27 10:17:46;;;;;;;4.10;0.70;;;6.50;1.00;;;;;;5053091;28;20392;-67
2023/11/27 10:20:12;;;;;;;4.55;0.60;;;6.40;1.00;;;;;;5052035;28;20401;-67
2023/11/27 10:22:44;;;;;;;4.20;0.60;;;6.40;1.00;;;;;;5050400;28;20481;-67
2023/11/27 10:25:14;;;;;;;4.60;0.80;;;6.40;1.00;;;;;;5051881;28;20401;-67
2023/11/27 10:27:45;;;;;;;4.30;0.70;;;6.20;1.00;;;;;;5052298;28;20382;-66
2023/11/27 10:30:21;;;;;;;4.53;0.70;;;6.20;1.00;;;;;;5051375;28;20987;-66
2023/11/27 10:32:47;;;;;;;6.18;0.98;;;6.30;1.00;;;;;;5051792;28;20440;-67
2023/11/27 10:35:17;;;;;;;4.97;0.82;;;6.30;1.00;;;;;;5051531;28;20895;-67
2023/11/27 10:37:43;;;;;;;4.20;0.70;;;6.30;1.00;;;;;;5051924;28;20919;-67
2023/11/27 10:40:16;;;;;;;8.77;1.25;;;6.30;1.00;;;;;;5051544;28;20476;-66
2023/11/27 10:42:47;;;;;;;4.50;0.90;;;6.30;1.00;;;;;;5051435;28;20424;-66
2023/11/27 10:45:15;;;;;;;5.07;1.03;;;6.30;1.00;;;;;;5051200;28;20386;-67
2023/11/27 10:47:51;;;;;;;4.60;0.90;;;6.20;1.00;;;;;;5051705;28;20389;-67
2023/11/27 10:50:18;;;;;;;4.70;0.90;;;6.40;1.00;;;;;;5051155;28;20378;-67
2023/11/27 10:52:47;;;;;;;4.35;0.93;;;6.40;1.00;;;;;;5052002;28;20468;-66
2023/11/27 10:55:19;;;;;;;4.80;1.00;;;6.50;1.00;;;;;;5051544;28;20381;-67
2023/11/27 10:57:47;;;;;;;4.50;0.70;;;6.50;1.00;;;;;;5051278;28;20397;-67
2023/11/27 11:00:18;;;;;;;4.90;1.10;;;6.40;1.00;;;;;;5051327;28;20417;-67
2023/11/27 11:02:48;;;;;;;5.18;0.93;;;6.40;1.00;;;;;;5051572;28;20432;-67
2023/11/27 11:05:26;;;;;;;4.47;0.98;;;6.50;1.00;;;;;;5051793;28;20503;-66
2023/11/27 11:07:55;;;;;;;5.00;1.00;;;6.50;1.00;;;;;;5050912;28;20394;-67
2023/11/27 11:10:26;;;;;;;5.27;1.30;;;6.40;1.00;;;;;;5050867;28;20429;-67
2023/11/27 11:12:53;;;;;;;21.20;1.20;;;6.50;1.00;;;;;;5050934;28;20417;-67
2023/11/27 11:15:27;;;;;;;4.20;0.70;;;6.60;1.00;;;;;;5050357;28;20510;-67
2023/11/27 11:18:10;;;;;;;4.78;0.93;;;6.50;1.00;;;;;;5050815;28;20471;-67
2023/11/27 11:21:05;;;;;;;5.13;1.20;;;6.30;1.00;;;;;;5050873;28;20766;-67
2023/11/27 11:23:57;;;;;;;5.00;0.90;;;6.40;1.00;;;;;;5050798;28;20393;-67
2023/11/27 11:26:56;;;;;;;5.65;1.20;;;6.70;1.00;;;;;;5050496;28;20404;-67
2023/11/27 11:29:36;;;;;;;4.30;0.80;;;6.80;1.00;;;;;;5044319;28;20851;-67
2023/11/27 11:32:04;;;;;;;4.72;0.70;;;6.90;1.00;;;;;;5050127;28;20819;-67
2023/11/27 11:34:38;;;;;;;5.40;1.40;;;6.80;1.00;;;;;;5050017;28;20396;-70
2023/11/27 11:37:06;;;;;;;4.97;1.00;;;6.80;1.00;;;;;;5043719;28;20954;-66
2023/11/27 11:39:33;;;;;;;4.80;1.10;;;6.70;1.00;;;;;;5036651;28;20435;-67
2023/11/27 11:42:03;;;;;;;4.70;1.40;;;6.60;1.00;;;;;;5039197;28;20478;-67
2023/11/27 11:44:34;;;;;;;4.50;0.60;;;6.60;1.00;;;;;;5033331;28;20390;-66
2023/11/27 11:47:06;;;;;;;6.30;1.30;;;6.50;1.00;;;;;;5050045;28;20455;-68
2023/11/27 11:49:32;;;;;;;4.90;1.20;;;6.50;1.00;;;;;;5050072;28;20396;-67
2023/11/27 11:52:08;;;;;;;6.40;0.80;;;6.50;1.00;;;;;;5049797;28;20397;-66
2023/11/27 11:54:38;;;;;;;4.22;0.88;;;6.60;1.00;;;;;;5036155;28;20422;-67
2023/11/27 11:57:14;;;;;;;4.73;1.00;;;6.60;1.00;;;;;;5029971;28;20379;-66
2023/11/27 11:59:44;;;;;;;5.05;1.00;;;6.40;1.00;;;;;;5042216;28;20392;-66
2023/11/27 12:02:11;;;;;;;4.93;1.23;;;6.40;1.00;;;;;;5038938;28;20385;-67
2023/11/27 12:04:43;;;;;;;4.38;0.98;;;6.40;1.00;;;;;;5048218;28;20433;-68
2023/11/27 12:07:09;;;;;;;5.45;1.20;;;6.40;1.00;;;;;;5050100;28;20476;-67
2023/11/27 12:09:41;;;;;;;4.47;0.88;;;6.60;1.00;;;;;;5049501;28;20795;-67
2023/11/27 12:12:08;;;;;;;5.77;1.00;;;6.50;1.00;;;;;;5047867;28;20489;-67
2023/11/27 12:14:34;;;;;;;4.40;0.90;;;6.50;1.00;;;;;;5048350;28;20393;-67
2023/11/27 12:17:00;;;;;;;4.93;1.20;;;6.60;1.00;;;;;;5044974;28;20846;-67
2023/11/27 12:19:27;;;;;;;6.45;1.40;;;6.50;1.00;;;;;;5048973;28;20490;-67
2023/11/27 12:21:53;;;;;;;5.15;0.98;;;6.50;1.00;;;;;;5047713;28;20391;-67
2023/11/27 12:24:19;;;;;;;6.35;0.93;;;6.50;1.00;;;;;;5049005;28;20439;-67
2023/11/27 12:26:52;;;;;;;5.30;0.98;;;6.40;1.00;;;;;;5049155;28;20918;-67
2023/11/27 12:29:19;;;;;;;5.82;1.13;;;6.50;1.00;;;;;;5049013;28;20392;-67
2023/11/27 12:31:45;;;;;;;4.65;0.90;;;6.60;1.00;;;;;;5047907;28;20392;-67
2023/11/27 12:34:15;;;;;;;4.80;1.05;;;6.20;1.00;;;;;;5049847;28;20420;-67
2023/11/27 12:36:40;;;;;;;4.40;0.70;;;6.20;1.00;;;;;;5049427;28;20528;-67
2023/11/27 12:39:10;;;;;;;6.40;0.82;;;6.30;1.00;;;;;;5049239;28;20460;-67
2023/11/27 12:41:36;;;;;;;4.72;0.80;;;6.00;1.00;;;;;;5048571;28;20421;-67
2023/11/27 12:44:19;;;;;;;5.10;0.60;;;5.90;1.00;;;;;;5049756;28;20432;-68
2023/11/27 12:46:49;;;;;;;4.50;0.88;;;5.80;1.00;;;;;;5049570;28;20432;-67
2023/11/27 12:49:22;;;;;;;4.70;0.82;;;6.00;1.00;;;;;;5053518;28;20409;-67
2023/11/27 12:51:51;;;;;;;5.90;1.00;;;6.00;1.00;;;;;;5051614;28;20408;-67
2023/11/27 12:54:20;;;;;;;4.07;0.50;;;5.90;1.00;;;;;;5051836;28;20423;-67
2023/11/27 12:56:52;;;;;;;4.30;0.90;;;5.60;1.00;;;;;;5044160;28;20385;-67
2023/11/27 12:59:18;;;;;;;5.93;1.00;;;5.70;1.00;;;;;;5052568;28;20408;-68
2023/11/27 13:01:57;;;;;;;5.20;0.88;;;5.80;1.00;;;;;;5052245;28;20420;-67
2023/11/27 13:04:29;;;;;;;4.63;0.90;;;5.90;1.00;;;;;;5052572;28;20393;-68
2023/11/27 13:06:57;;;;;;;4.80;0.90;;;6.10;1.00;;;;;;5052292;28;20416;-67